Adamsville, Rhode Island
Current Conditions -  °F | °C
As of 7:32 PM on Monday 24 Nov 2014 (Local Time) from KUUU Reporting Station
Haze Haze  
Wind Chill: 60°   Ceiling: 1300
Heat Index: 60°   Visibility: 6mi
Dew Point: 57°   Wind: 14mph
Humidity: 90%   Direction: 210°SSW
Pressure: 29.72"   Gusts: 25mph
Location:  41.55°N, 71.13°W
Report Text: KUUU 250032Z AUTO 21012G22KT 6SM BR FEW005 OVC013 16/14 A2972 RMK AO2 T01560139
Loading
Personal Weather Stations






























Interactive Weather Map New forecast layout! Learn more

10-Day Weather Forecast

Advertisements
Track Severe Weather on mobile